Time;durP1;ratioP1;P1;durP2;ratioP2;P2;SDS_P1;SDS_P2;PMS_P1;PMS_P2;Temp;Humidity;BMP_temperature;BMP_pressure;BME280_temperature;BME280_humidity;BME280_pressure;Samples;Min_cycle;Max_cycle;Signal;HPM_P1;HPM_P2
2023/04/16 00:01:35;;;;;;;71.15;25.70;;;7.40;94.10;;;;;;5018584;28;20424;-74
2023/04/16 00:04:02;;;;;;;61.17;25.65;;;7.40;94.10;;;;;;5021284;28;20049;-74
2023/04/16 00:06:30;;;;;;;56.42;24.83;;;7.40;94.30;;;;;;5021785;28;20061;-73
2023/04/16 00:08:57;;;;;;;55.63;25.95;;;7.40;94.30;;;;;;5020599;28;20045;-73
2023/04/16 00:11:24;;;;;;;55.28;24.45;;;7.40;94.40;;;;;;5029195;28;20375;-73
2023/04/16 00:13:51;;;;;;;56.47;23.60;;;7.40;94.30;;;;;;5026087;28;20065;-74
2023/04/16 00:16:18;;;;;;;55.58;23.38;;;7.40;94.40;;;;;;5027187;28;20056;-74
2023/04/16 00:18:45;;;;;;;62.28;25.17;;;7.30;94.50;;;;;;5024789;28;20049;-73
2023/04/16 00:21:12;;;;;;;68.00;25.95;;;7.30;94.50;;;;;;5025445;28;20179;-73
2023/04/16 00:23:38;;;;;;;60.97;25.80;;;7.30;94.50;;;;;;5030869;28;20800;-74
2023/04/16 00:26:05;;;;;;;54.13;23.95;;;7.30;94.40;;;;;;5028875;28;20061;-73
2023/04/16 00:28:32;;;;;;;59.25;23.92;;;7.20;94.60;;;;;;5036880;28;20500;-73
2023/04/16 00:31:00;;;;;;;62.40;23.95;;;7.30;94.70;;;;;;5031818;28;20060;-73
2023/04/16 00:33:28;;;;;;;65.07;24.85;;;7.30;94.90;;;;;;5026582;28;20057;-74
2023/04/16 00:35:55;;;;;;;53.50;24.50;;;7.30;94.80;;;;;;5036516;28;20053;-73
2023/04/16 00:38:22;;;;;;;58.78;24.15;;;7.30;94.70;;;;;;5037238;28;20573;-73
2023/04/16 00:40:49;;;;;;;57.10;23.70;;;7.20;94.70;;;;;;5035554;28;20084;-73
2023/04/16 00:43:21;;;;;;;60.05;25.45;;;7.20;94.60;;;;;;5026994;28;20056;-73
2023/04/16 00:45:49;;;;;;;55.33;23.30;;;7.20;94.60;;;;;;5020333;28;20738;-73
2023/04/16 00:48:16;;;;;;;65.55;25.08;;;7.20;95.00;;;;;;5028410;28;20064;-73
2023/04/16 00:50:43;;;;;;;75.22;24.73;;;7.20;95.10;;;;;;5019262;28;20124;-73
2023/04/16 00:53:10;;;;;;;61.40;24.63;;;7.20;95.30;;;;;;5031215;28;20044;-73
2023/04/16 00:55:38;;;;;;;61.22;24.20;;;7.10;95.00;;;;;;5024566;28;20056;-74
2023/04/16 00:58:05;;;;;;;53.72;23.77;;;7.10;94.80;;;;;;5038528;28;20048;-74
2023/04/16 01:00:32;;;;;;;58.28;23.98;;;7.10;95.00;;;;;;5026065;28;20048;-74
2023/04/16 01:02:59;;;;;;;67.47;25.80;;;7.10;95.20;;;;;;5028051;28;20059;-73
2023/04/16 01:05:26;;;;;;;62.58;24.85;;;7.10;95.00;;;;;;5020656;28;20815;-73
2023/04/16 01:07:53;;;;;;;61.67;23.95;;;7.10;95.10;;;;;;5019278;28;20038;-73
2023/04/16 01:10:19;;;;;;;61.05;23.45;;;7.10;95.20;;;;;;5030923;28;20048;-73
2023/04/16 01:12:46;;;;;;;51.75;23.15;;;7.10;95.00;;;;;;5024189;28;20083;-74
2023/04/16 01:15:16;;;;;;;61.78;24.40;;;7.10;95.00;;;;;;5023392;28;20053;-73
2023/04/16 01:17:46;;;;;;;62.53;23.50;;;7.10;95.10;;;;;;5020588;28;20053;-73
2023/04/16 01:20:14;;;;;;;57.25;22.92;;;7.10;95.00;;;;;;5028869;28;20080;-73
2023/04/16 01:22:41;;;;;;;57.92;23.38;;;7.10;95.30;;;;;;5020420;28;20045;-73
2023/04/16 01:25:12;;;;;;;59.90;24.77;;;7.10;95.30;;;;;;5020850;28;20049;-73
2023/04/16 01:27:39;;;;;;;60.40;24.85;;;7.10;95.10;;;;;;5035041;28;20659;-73
2023/04/16 01:30:06;;;;;;;57.45;24.70;;;7.10;95.20;;;;;;5030706;28;20045;-73
2023/04/16 01:32:33;;;;;;;57.85;23.88;;;7.10;95.10;;;;;;5026596;28;20071;-73
2023/04/16 01:35:00;;;;;;;58.95;23.80;;;7.10;95.20;;;;;;5024570;28;20057;-73
2023/04/16 01:37:27;;;;;;;60.20;23.13;;;7.10;95.60;;;;;;5015538;28;20061;-73
2023/04/16 01:39:54;;;;;;;59.03;22.98;;;7.10;95.30;;;;;;5018301;28;20136;-73
2023/04/16 01:42:21;;;;;;;66.75;24.05;;;7.10;95.40;;;;;;5016368;28;20223;-73
2023/04/16 01:44:48;;;;;;;62.05;24.35;;;7.10;95.40;;;;;;5029490;28;20803;-73
2023/04/16 01:47:14;;;;;;;65.80;24.95;;;7.10;95.70;;;;;;5019269;28;20047;-74
2023/04/16 01:49:44;;;;;;;53.30;21.88;;;7.10;95.40;;;;;;5014864;28;22014;-73
2023/04/16 01:52:11;;;;;;;66.07;25.25;;;7.10;95.50;;;;;;5020626;28;20065;-73
2023/04/16 01:54:38;;;;;;;60.05;23.75;;;7.00;95.30;;;;;;5015762;28;20698;-73
2023/04/16 01:57:04;;;;;;;65.35;24.80;;;7.00;95.50;;;;;;5016418;28;20045;-73
2023/04/16 01:59:31;;;;;;;58.92;23.10;;;7.00;95.40;;;;;;5017230;28;20061;-73
2023/04/16 02:02:10;;;;;;;61.25;22.15;;;7.00;95.90;;;;;;5020324;28;20057;-73
2023/04/16 02:04:38;;;;;;;66.95;24.17;;;7.00;95.70;;;;;;5022405;28;20053;-73
2023/04/16 02:07:06;;;;;;;59.70;22.60;;;7.00;95.70;;;;;;5016933;28;20041;-73
2023/04/16 02:09:37;;;;;;;54.75;22.98;;;7.00;95.60;;;;;;5015879;28;20133;-73
2023/04/16 02:12:05;;;;;;;62.88;23.02;;;7.00;95.50;;;;;;5016418;28;20057;-73
2023/04/16 02:14:32;;;;;;;64.38;26.08;;;7.00;95.50;;;;;;5015276;28;20053;-74
2023/04/16 02:17:00;;;;;;;59.95;24.08;;;7.00;95.50;;;;;;5034056;28;20054;-73
2023/04/16 02:19:27;;;;;;;69.45;25.33;;;7.00;95.70;;;;;;5021911;28;20512;-73
2023/04/16 02:21:54;;;;;;;63.05;23.88;;;7.00;95.40;;;;;;5017018;28;20103;-74
2023/04/16 02:24:21;;;;;;;66.72;23.52;;;7.00;95.40;;;;;;5023741;28;20041;-73
2023/04/16 02:26:48;;;;;;;61.22;24.05;;;7.00;95.60;;;;;;5030860;28;20120;-74
2023/04/16 02:29:15;;;;;;;66.90;25.40;;;7.00;95.50;;;;;;5024098;28;20052;-74
2023/04/16 02:31:43;;;;;;;65.32;25.73;;;7.00;95.70;;;;;;5032430;28;20114;-74
2023/04/16 02:34:10;;;;;;;64.65;22.77;;;7.00;95.60;;;;;;5031131;28;20057;-74
2023/04/16 02:36:37;;;;;;;59.55;23.83;;;7.00;95.70;;;;;;5032260;28;20736;-73
2023/04/16 02:39:04;;;;;;;64.88;24.50;;;7.00;95.70;;;;;;5025051;28;21585;-74
2023/04/16 02:41:31;;;;;;;61.15;24.25;;;7.00;95.50;;;;;;5025306;28;20111;-74
2023/04/16 02:43:57;;;;;;;60.65;24.63;;;7.00;95.70;;;;;;5018411;28;20049;-73
2023/04/16 02:46:24;;;;;;;61.80;22.13;;;7.00;95.70;;;;;;5019310;28;20042;-74
2023/04/16 02:48:52;;;;;;;67.28;25.70;;;7.00;95.80;;;;;;5026359;28;20045;-73
2023/04/16 02:51:18;;;;;;;72.85;26.98;;;7.00;95.90;;;;;;5019161;28;20781;-74
2023/04/16 02:53:45;;;;;;;62.38;25.13;;;7.00;95.80;;;;;;5019043;28;20046;-74
2023/04/16 02:56:12;;;;;;;71.05;25.60;;;7.00;96.10;;;;;;5023167;28;20049;-73
2023/04/16 02:58:39;;;;;;;65.25;25.50;;;7.00;96.00;;;;;;5026568;28;20049;-74
2023/04/16 03:01:06;;;;;;;74.40;25.83;;;7.00;96.00;;;;;;5026824;28;20126;-73
2023/04/16 03:03:33;;;;;;;72.15;24.85;;;7.00;96.00;;;;;;5027314;28;20053;-74
2023/04/16 03:06:00;;;;;;;74.80;24.30;;;7.00;95.80;;;;;;5034528;28;20048;-74
2023/04/16 03:08:26;;;;;;;67.97;25.08;;;7.00;95.90;;;;;;5032480;28;20600;-74
2023/04/16 03:10:56;;;;;;;70.47;26.30;;;7.00;95.80;;;;;;5016878;28;20059;-73
2023/04/16 03:13:23;;;;;;;69.82;26.33;;;7.00;96.00;;;;;;5018651;28;20061;-73
2023/04/16 03:15:49;;;;;;;82.07;26.67;;;7.00;96.10;;;;;;5020831;28;20050;-73
2023/04/16 03:18:16;;;;;;;82.72;29.20;;;7.00;95.90;;;;;;5025208;28;20059;-74
2023/04/16 03:20:43;;;;;;;76.68;26.40;;;7.00;96.00;;;;;;5024058;28;20045;-74
2023/04/16 03:23:10;;;;;;;75.47;25.52;;;7.00;96.00;;;;;;5026880;28;20053;-73
2023/04/16 03:25:39;;;;;;;81.43;26.48;;;7.00;96.10;;;;;;5027526;28;20060;-74
2023/04/16 03:28:06;;;;;;;74.60;27.25;;;7.00;96.00;;;;;;5049926;28;20079;-73
2023/04/16 03:30:33;;;;;;;68.38;25.42;;;7.00;96.00;;;;;;5038027;28;20057;-73
2023/04/16 03:33:00;;;;;;;73.85;25.10;;;6.90;96.30;;;;;;5028865;28;20857;-73
2023/04/16 03:35:26;;;;;;;71.03;26.55;;;6.90;96.00;;;;;;5032961;28;20068;-73
2023/04/16 03:37:53;;;;;;;65.07;26.05;;;6.90;96.30;;;;;;5036902;28;20057;-73
2023/04/16 03:40:20;;;;;;;70.60;25.35;;;6.90;96.10;;;;;;5036576;28;20049;-73
2023/04/16 03:42:47;;;;;;;70.95;25.17;;;6.90;96.20;;;;;;5025967;28;20051;-74
2023/04/16 03:45:14;;;;;;;72.90;25.33;;;6.90;96.10;;;;;;5032647;28;20561;-73
2023/04/16 03:47:41;;;;;;;70.35;26.17;;;6.90;96.30;;;;;;5024517;28;20045;-73
2023/04/16 03:50:08;;;;;;;75.15;25.92;;;6.90;96.40;;;;;;5031696;28;20051;-73
2023/04/16 03:52:35;;;;;;;80.13;27.17;;;6.90;96.20;;;;;;5033814;28;20048;-73
2023/04/16 03:55:02;;;;;;;68.47;25.48;;;6.80;96.30;;;;;;5031600;28;20523;-74
2023/04/16 03:57:29;;;;;;;73.50;26.42;;;6.90;96.40;;;;;;5031789;28;20052;-74
2023/04/16 03:59:56;;;;;;;71.45;24.45;;;6.90;96.30;;;;;;5026881;28;20061;-73
2023/04/16 04:02:23;;;;;;;68.10;27.17;;;6.90;96.50;;;;;;5018905;28;20054;-74
2023/04/16 04:04:50;;;;;;;69.03;26.38;;;6.90;96.50;;;;;;5016984;28;20057;-74
2023/04/16 04:07:17;;;;;;;73.45;26.33;;;6.90;96.50;;;;;;5024388;28;20045;-73
2023/04/16 04:09:49;;;;;;;68.13;26.70;;;6.90;96.40;;;;;;5024432;28;20041;-73
2023/04/16 04:12:19;;;;;;;72.53;26.42;;;6.90;96.40;;;;;;5027523;28;20045;-80
2023/04/16 04:14:45;;;;;;;73.40;26.02;;;6.90;96.30;;;;;;5028729;28;20058;-80
2023/04/16 04:17:12;;;;;;;66.20;25.70;;;6.90;96.50;;;;;;5026788;28;20052;-80
2023/04/16 04:19:39;;;;;;;69.03;26.30;;;6.90;96.20;;;;;;5030973;28;20049;-74
2023/04/16 04:22:16;;;;;;;60.47;25.30;;;6.90;96.50;;;;;;5025804;28;20053;-73
2023/04/16 04:24:43;;;;;;;69.88;26.02;;;6.90;96.40;;;;;;5016555;28;20935;-73
2023/04/16 04:27:10;;;;;;;79.13;27.10;;;6.90;96.40;;;;;;5017339;28;20053;-73
2023/04/16 04:29:36;;;;;;;66.60;26.27;;;6.90;96.40;;;;;;5018274;28;20037;-73
2023/04/16 04:32:03;;;;;;;73.50;26.60;;;6.90;96.50;;;;;;5016912;28;20049;-73
2023/04/16 04:34:30;;;;;;;63.65;24.08;;;6.90;96.50;;;;;;5015224;28;20140;-73
2023/04/16 04:36:58;;;;;;;65.80;25.23;;;6.90;96.50;;;;;;5016606;28;20056;-73
2023/04/16 04:39:25;;;;;;;68.38;25.42;;;6.90;96.40;;;;;;5017040;28;20053;-73
2023/04/16 04:41:51;;;;;;;73.68;27.20;;;6.90;96.50;;;;;;5023161;28;20053;-73
2023/04/16 04:44:18;;;;;;;71.07;27.67;;;7.00;96.50;;;;;;5019772;28;20045;-73
2023/04/16 04:46:45;;;;;;;77.75;29.00;;;6.90;96.40;;;;;;5030037;28;20414;-73
2023/04/16 04:49:12;;;;;;;66.10;27.58;;;6.90;96.80;;;;;;5026415;28;20053;-73
2023/04/16 04:51:39;;;;;;;63.63;25.85;;;6.90;96.60;;;;;;5027568;28;20048;-73
2023/04/16 04:54:06;;;;;;;74.97;28.40;;;6.90;96.70;;;;;;5023125;28;20053;-73
2023/04/16 04:56:35;;;;;;;67.93;26.60;;;7.00;97.00;;;;;;5033518;28;20053;-73
2023/04/16 04:59:02;;;;;;;66.07;26.40;;;7.00;96.70;;;;;;5030283;23;20048;-73
2023/04/16 05:01:29;;;;;;;72.55;28.50;;;6.90;96.70;;;;;;5000219;28;20057;-73
2023/04/16 05:03:58;;;;;;;77.75;27.30;;;7.00;96.90;;;;;;4981404;28;21914;-73
2023/04/16 05:06:26;;;;;;;74.38;28.10;;;7.00;97.00;;;;;;4994713;28;20881;-73
2023/04/16 05:08:55;;;;;;;74.60;25.70;;;7.00;97.20;;;;;;4986903;28;20054;-73
2023/04/16 05:11:22;;;;;;;74.78;27.33;;;7.00;97.20;;;;;;4987781;28;20042;-73
2023/04/16 05:13:49;;;;;;;73.53;26.67;;;7.10;96.90;;;;;;4979371;28;20068;-73
2023/04/16 05:16:15;;;;;;;80.00;27.50;;;7.10;96.80;;;;;;4991034;28;20128;-82
2023/04/16 05:21:10;;;;;;;70.22;27.10;;;7.10;96.60;;;;;;4949665;28;20152;-80
2023/04/16 05:23:37;;;;;;;68.13;26.08;;;7.10;96.80;;;;;;4952601;28;20047;-81
2023/04/16 05:26:04;;;;;;;85.47;28.48;;;7.10;96.80;;;;;;4957667;28;20102;-81
2023/04/16 05:28:31;;;;;;;77.80;26.67;;;7.10;96.70;;;;;;4945752;28;20047;-80
2023/04/16 05:30:58;;;;;;;65.78;26.50;;;7.10;96.70;;;;;;4972321;28;20039;-80
2023/04/16 05:33:24;;;;;;;76.53;26.90;;;7.20;96.50;;;;;;4974778;28;20050;-81
2023/04/16 05:35:51;;;;;;;73.68;27.95;;;7.20;96.40;;;;;;4941799;28;20058;-81
2023/04/16 05:38:18;;;;;;;71.65;26.85;;;7.20;96.50;;;;;;4941567;28;20062;-81
2023/04/16 05:40:45;;;;;;;68.68;26.83;;;7.20;96.40;;;;;;4960749;28;20054;-81
2023/04/16 05:43:12;;;;;;;75.72;26.50;;;7.20;96.70;;;;;;4944504;28;21027;-80
2023/04/16 05:45:39;;;;;;;73.97;26.33;;;7.20;96.30;;;;;;4945147;28;20055;-81
2023/04/16 05:50:56;;;;;;;70.68;24.92;;;7.30;96.30;;;;;;4957622;28;20182;-73
2023/04/16 05:53:23;;;;;;;69.70;26.92;;;7.30;96.30;;;;;;4932515;28;20367;-73
2023/04/16 05:55:50;;;;;;;72.28;26.65;;;7.40;96.40;;;;;;4939070;28;20051;-73
2023/04/16 05:58:17;;;;;;;63.47;25.27;;;7.30;96.60;;;;;;4960961;28;20064;-73
2023/04/16 06:00:44;;;;;;;70.10;26.30;;;7.40;96.50;;;;;;4947327;28;20051;-72
2023/04/16 06:03:11;;;;;;;68.68;26.13;;;7.40;96.70;;;;;;4952926;28;20051;-73
2023/04/16 06:05:38;;;;;;;70.32;27.13;;;7.50;96.60;;;;;;4941822;28;20047;-73
2023/04/16 06:08:05;;;;;;;79.07;27.77;;;7.60;96.40;;;;;;4944162;28;20058;-73
2023/04/16 06:10:32;;;;;;;77.30;26.75;;;7.70;95.90;;;;;;4950440;28;20050;-73
2023/04/16 06:12:58;;;;;;;88.05;26.65;;;7.70;95.70;;;;;;4947560;28;20580;-73
2023/04/16 06:15:25;;;;;;;68.00;26.55;;;7.80;95.60;;;;;;4943405;28;20059;-72
2023/04/16 06:17:55;;;;;;;68.07;25.70;;;7.80;95.10;;;;;;4945669;28;20058;-73
2023/04/16 06:20:23;;;;;;;62.92;23.90;;;7.80;95.00;;;;;;4957525;28;20062;-82
2023/04/16 06:22:50;;;;;;;56.50;24.10;;;7.90;95.30;;;;;;4952043;28;20075;-81
2023/04/16 06:25:17;;;;;;;63.58;25.98;;;7.90;95.20;;;;;;4954643;28;20047;-80
2023/04/16 06:27:44;;;;;;;64.75;26.17;;;7.90;94.90;;;;;;4951843;28;20492;-83
2023/04/16 06:30:12;;;;;;;67.47;25.08;;;8.00;95.00;;;;;;4936706;28;20134;-83
2023/04/16 06:32:39;;;;;;;58.58;23.35;;;8.00;94.50;;;;;;4957272;28;20389;-80
2023/04/16 06:35:06;;;;;;;65.70;24.40;;;8.00;94.60;;;;;;4950196;28;20059;-80
2023/04/16 06:37:33;;;;;;;57.70;25.45;;;8.00;94.80;;;;;;4935921;29;20110;-79
2023/04/16 06:40:00;;;;;;;58.28;24.67;;;8.10;94.50;;;;;;4962055;28;20150;-79
2023/04/16 06:42:27;;;;;;;61.53;24.33;;;8.10;94.20;;;;;;4948666;28;20054;-80
2023/04/16 06:44:54;;;;;;;62.10;24.45;;;8.20;94.40;;;;;;4954163;28;20039;-79
2023/04/16 06:47:21;;;;;;;70.57;26.67;;;8.20;94.40;;;;;;4936730;29;20381;-78
2023/04/16 06:49:47;;;;;;;73.38;28.42;;;8.20;93.90;;;;;;4953175;28;20419;-79
2023/04/16 06:52:14;;;;;;;62.88;24.33;;;8.20;94.10;;;;;;4952065;28;20106;-78
2023/04/16 06:54:41;;;;;;;56.55;25.17;;;8.30;94.40;;;;;;4949741;28;20741;-79
2023/04/16 06:57:08;;;;;;;60.72;26.75;;;8.40;94.20;;;;;;4969284;28;20062;-78
2023/04/16 06:59:35;;;;;;;73.47;26.05;;;8.50;94.30;;;;;;4950369;28;20051;-83
2023/04/16 07:02:02;;;;;;;51.78;23.70;;;8.60;93.90;;;;;;4932683;28;20779;-79
2023/04/16 07:04:29;;;;;;;55.00;23.75;;;8.60;92.40;;;;;;4931388;29;20047;-79
2023/04/16 07:06:56;;;;;;;58.60;23.52;;;8.60;93.30;;;;;;4966073;28;20460;-80
2023/04/16 07:09:23;;;;;;;58.53;22.05;;;8.80;92.60;;;;;;4947100;28;20051;-80
2023/04/16 07:11:49;;;;;;;45.00;22.35;;;8.80;92.50;;;;;;4939725;28;20039;-80
2023/04/16 07:14:16;;;;;;;50.40;23.42;;;8.80;92.60;;;;;;4940880;29;20043;-80
2023/04/16 07:16:43;;;;;;;54.40;24.20;;;8.90;92.10;;;;;;4970550;28;20051;-78
2023/04/16 07:19:10;;;;;;;53.72;22.02;;;9.00;91.80;;;;;;4956009;28;20055;-80
2023/04/16 07:21:38;;;;;;;52.40;21.55;;;9.00;91.20;;;;;;4956291;28;20056;-80
2023/04/16 07:24:05;;;;;;;48.88;21.73;;;9.10;91.20;;;;;;4953511;28;20054;-79
2023/04/16 07:26:32;;;;;;;50.75;23.25;;;9.10;91.00;;;;;;4957047;28;20053;-79
2023/04/16 07:28:58;;;;;;;47.15;20.95;;;9.20;90.60;;;;;;4955427;28;20052;-80
2023/04/16 07:31:26;;;;;;;47.72;21.60;;;9.20;90.20;;;;;;4948509;28;20063;-80
2023/04/16 07:33:53;;;;;;;43.78;20.67;;;9.20;90.60;;;;;;4960969;28;20051;-77
2023/04/16 07:36:20;;;;;;;49.83;20.85;;;9.20;90.10;;;;;;4960499;28;20051;-82
2023/04/16 07:38:46;;;;;;;47.83;21.00;;;9.20;90.70;;;;;;4959351;28;20082;-86
2023/04/16 07:41:14;;;;;;;45.47;20.15;;;9.30;90.00;;;;;;4933034;29;20082;-80
2023/04/16 07:43:43;;;;;;;48.25;20.25;;;9.30;91.00;;;;;;4938979;28;20500;-87
2023/04/16 07:49:54;;;;;;;44.75;20.73;;;9.70;89.50;;;;;;4952488;28;20070;-82
2023/04/16 07:52:20;;;;;;;47.25;19.67;;;9.80;88.70;;;;;;4947619;29;20043;-82
2023/04/16 07:54:47;;;;;;;41.75;20.08;;;9.80;88.90;;;;;;4956136;28;20058;-80
2023/04/16 07:57:15;;;;;;;44.03;19.48;;;9.80;88.20;;;;;;4960848;28;20694;-77
2023/04/16 07:59:42;;;;;;;38.85;19.80;;;9.90;88.70;;;;;;4944096;28;20074;-81
2023/04/16 08:02:13;;;;;;;38.95;19.23;;;10.10;88.30;;;;;;4948970;28;20047;-75
2023/04/16 08:04:43;;;;;;;45.22;19.60;;;10.30;88.20;;;;;;4951715;28;20055;-75
2023/04/16 08:07:11;;;;;;;41.63;19.08;;;10.40;86.50;;;;;;4954605;28;20407;-76
2023/04/16 08:09:55;;;;;;;41.30;19.20;;;10.30;87.10;;;;;;4933857;28;20062;-75
2023/04/16 08:12:22;;;;;;;38.85;18.48;;;10.60;86.80;;;;;;4951177;28;20051;-76
2023/04/16 08:14:49;;;;;;;36.25;17.77;;;10.80;86.10;;;;;;4955988;28;20048;-86
2023/04/16 08:17:16;;;;;;;183.70;33.30;;;10.80;85.80;;;;;;4956721;28;20476;-81
2023/04/16 08:19:44;;;;;;;66.25;20.15;;;11.00;85.60;;;;;;4969624;23;20050;-82
2023/04/16 08:22:14;;;;;;;78.90;21.00;;;11.00;84.00;;;;;;4988048;28;20050;-84
2023/04/16 08:24:41;;;;;;;103.18;23.75;;;11.10;85.60;;;;;;4988641;28;20406;-85
2023/04/16 08:27:09;;;;;;;32.22;16.10;;;11.30;85.00;;;;;;4997007;28;20054;-82
2023/04/16 08:29:45;;;;;;;32.13;15.68;;;11.40;83.70;;;;;;4990495;28;20066;-82
2023/04/16 08:32:12;;;;;;;33.03;15.02;;;11.50;83.00;;;;;;4985909;28;20049;-78
2023/04/16 08:34:39;;;;;;;40.22;16.63;;;11.30;82.70;;;;;;4973399;28;20054;-82
2023/04/16 08:37:06;;;;;;;29.40;13.90;;;11.30;83.70;;;;;;4978546;28;20133;-83
2023/04/16 08:39:34;;;;;;;28.90;13.25;;;11.50;83.20;;;;;;4975170;28;20055;-81
2023/04/16 08:42:04;;;;;;;27.00;14.23;;;11.80;82.00;;;;;;4986804;28;20051;-83
2023/04/16 08:44:36;;;;;;;29.45;14.40;;;12.00;81.70;;;;;;4984633;28;20061;-83
2023/04/16 08:47:07;;;;;;;27.35;14.30;;;11.90;81.20;;;;;;4987642;28;20141;-83
2023/04/16 08:53:05;;;;;;;26.42;14.00;;;12.10;80.40;;;;;;4988484;28;20444;-76
2023/04/16 08:55:38;;;;;;;27.02;13.50;;;12.30;81.00;;;;;;4987680;28;20058;-76
2023/04/16 08:58:12;;;;;;;28.27;14.77;;;12.40;78.90;;;;;;4999042;28;20056;-76
2023/04/16 09:00:40;;;;;;;27.37;13.20;;;12.30;79.80;;;;;;4998697;28;20065;-76
2023/04/16 09:03:08;;;;;;;30.80;13.77;;;12.40;79.80;;;;;;4970129;28;20515;-75
2023/04/16 09:05:36;;;;;;;28.38;13.13;;;12.30;78.40;;;;;;4979159;28;20050;-75
2023/04/16 09:08:05;;;;;;;25.17;13.80;;;12.30;78.60;;;;;;4997397;28;20061;-75
2023/04/16 09:11:08;;;;;;;25.35;13.13;;;12.20;78.70;;;;;;4994588;28;20053;-74
2023/04/16 09:13:36;;;;;;;22.55;13.23;;;12.10;78.30;;;;;;4976306;28;20565;-75
2023/04/16 09:16:06;;;;;;;28.65;13.45;;;12.10;78.90;;;;;;4963026;28;20054;-75
2023/04/16 09:18:33;;;;;;;25.83;12.77;;;12.20;79.20;;;;;;4984915;28;20054;-75
2023/04/16 09:21:01;;;;;;;32.60;13.02;;;12.40;80.00;;;;;;4970785;28;20061;-75
2023/04/16 09:23:28;;;;;;;21.75;11.48;;;12.50;78.70;;;;;;4991118;28;20479;-76
2023/04/16 09:25:58;;;;;;;23.60;11.98;;;12.60;78.40;;;;;;4988904;28;20051;-75
2023/04/16 09:28:45;;;;;;;24.83;12.00;;;13.00;78.40;;;;;;4979914;28;20065;-74
2023/04/16 09:31:15;;;;;;;23.25;12.20;;;13.10;76.40;;;;;;4988456;28;20041;-76
2023/04/16 09:33:59;;;;;;;24.45;11.88;;;13.20;75.80;;;;;;4987824;28;20057;-76
2023/04/16 09:36:26;;;;;;;24.63;12.70;;;13.30;75.90;;;;;;4982847;28;20061;-75
2023/04/16 09:38:54;;;;;;;29.90;12.98;;;13.50;74.50;;;;;;4971275;28;20050;-75
2023/04/16 09:41:26;;;;;;;21.25;12.00;;;13.60;74.40;;;;;;4972944;28;20050;-75
2023/04/16 09:43:56;;;;;;;21.98;11.98;;;13.80;74.80;;;;;;4972672;28;20089;-74
2023/04/16 09:46:30;;;;;;;27.98;12.48;;;14.00;72.90;;;;;;4971701;28;20045;-74
2023/04/16 09:48:57;;;;;;;34.30;12.18;;;13.80;73.30;;;;;;4973239;28;20938;-75
2023/04/16 09:51:25;;;;;;;26.10;12.32;;;13.60;73.40;;;;;;4979725;28;20046;-81
2023/04/16 09:53:53;;;;;;;26.27;13.18;;;13.50;74.90;;;;;;4989249;28;20097;-81
2023/04/16 09:56:24;;;;;;;34.15;15.02;;;13.40;75.10;;;;;;4989630;28;20130;-83
2023/04/16 09:58:57;;;;;;;29.95;11.85;;;13.40;76.60;;;;;;4996703;28;20701;-81
2023/04/16 10:01:24;;;;;;;26.38;11.43;;;13.40;74.90;;;;;;4981111;28;20054;-80
2023/04/16 10:03:53;;;;;;;23.27;11.90;;;13.20;75.30;;;;;;4982251;28;20137;-81
2023/04/16 10:06:22;;;;;;;24.85;11.18;;;13.00;75.90;;;;;;4997545;28;20077;-80
2023/04/16 10:08:51;;;;;;;23.13;10.73;;;13.00;75.50;;;;;;4991078;28;20057;-81
2023/04/16 10:11:19;;;;;;;24.63;11.25;;;13.00;76.40;;;;;;5000446;28;20092;-80
2023/04/16 10:13:46;;;;;;;24.73;9.77;;;13.00;75.30;;;;;;4995213;28;20050;-80
2023/04/16 10:16:13;;;;;;;22.55;9.73;;;13.10;74.80;;;;;;4980510;28;20109;-81
2023/04/16 10:18:42;;;;;;;16.85;10.50;;;13.00;74.10;;;;;;4990537;28;20125;-81
2023/04/16 10:21:14;;;;;;;19.08;10.07;;;13.10;74.00;;;;;;4997622;28;20688;-80
2023/04/16 10:23:42;;;;;;;21.60;10.93;;;13.10;74.10;;;;;;4985640;28;20050;-79
2023/04/16 10:26:09;;;;;;;21.15;11.05;;;13.00;75.10;;;;;;5002504;28;20449;-80
2023/04/16 10:28:36;;;;;;;21.73;11.13;;;13.00;75.50;;;;;;4992508;28;20043;-80
2023/04/16 10:31:06;;;;;;;20.38;10.38;;;13.10;75.20;;;;;;4989275;28;20085;-78
2023/04/16 10:33:38;;;;;;;23.45;11.85;;;13.10;74.50;;;;;;4991795;28;20058;-78
2023/04/16 10:36:12;;;;;;;24.48;11.43;;;13.00;73.80;;;;;;4975829;28;20042;-78
2023/04/16 10:38:48;;;;;;;19.90;10.95;;;13.00;75.80;;;;;;4967510;28;20407;-80
2023/04/16 10:41:15;;;;;;;20.40;10.90;;;13.20;75.50;;;;;;4981657;28;20054;-80
2023/04/16 10:43:45;;;;;;;19.50;9.98;;;13.40;74.30;;;;;;4989923;28;20050;-80
2023/04/16 10:46:32;;;;;;;19.65;10.35;;;13.30;73.00;;;;;;4998439;28;20049;-80
2023/04/16 10:49:01;;;;;;;21.65;10.43;;;12.90;72.30;;;;;;4985365;28;20054;-81
2023/04/16 10:51:34;;;;;;;22.20;11.50;;;12.60;74.10;;;;;;4996806;28;20051;-80
2023/04/16 10:54:20;;;;;;;20.40;10.27;;;12.50;75.30;;;;;;4989009;28;20058;-83
2023/04/16 10:56:48;;;;;;;21.00;10.23;;;12.50;75.90;;;;;;4979243;28;20058;-82
2023/04/16 10:59:20;;;;;;;26.50;10.75;;;12.50;76.60;;;;;;4990306;28;20056;-81
2023/04/16 11:01:53;;;;;;;26.67;11.30;;;12.50;75.10;;;;;;4990753;28;20092;-82
2023/04/16 11:04:20;;;;;;;19.83;10.48;;;12.50;75.20;;;;;;4975246;28;20050;-82
2023/04/16 11:07:15;;;;;;;21.27;10.18;;;12.70;76.40;;;;;;4994860;28;20057;-82
2023/04/16 11:09:46;;;;;;;20.85;10.27;;;12.70;74.60;;;;;;4989297;28;20126;-82
2023/04/16 11:12:26;;;;;;;20.02;8.88;;;12.80;75.40;;;;;;4990091;28;20057;-82
2023/04/16 11:14:57;;;;;;;17.33;8.77;;;13.00;74.60;;;;;;4983513;28;20097;-81
2023/04/16 11:17:29;;;;;;;15.38;9.60;;;13.40;74.50;;;;;;5002453;28;20558;-81
2023/04/16 11:19:56;;;;;;;22.67;10.48;;;13.50;73.00;;;;;;4995046;28;20406;-84
2023/04/16 11:22:26;;;;;;;18.45;9.05;;;13.40;71.70;;;;;;4985583;28;20518;-83
2023/04/16 11:24:56;;;;;;;17.40;8.73;;;13.20;72.20;;;;;;4982181;28;20058;-82
2023/04/16 11:27:24;;;;;;;15.82;9.23;;;12.70;71.80;;;;;;4983983;28;20053;-81
2023/04/16 11:30:03;;;;;;;21.92;8.43;;;12.50;72.30;;;;;;4985061;28;20050;-84
2023/04/16 11:32:32;;;;;;;14.90;8.52;;;12.50;73.00;;;;;;4987861;28;20057;-83
2023/04/16 11:35:04;;;;;;;14.85;8.38;;;12.80;74.90;;;;;;4983533;28;20052;-80
2023/04/16 11:37:36;;;;;;;13.50;8.23;;;13.60;71.70;;;;;;4975047;28;20058;-79
2023/04/16 11:40:08;;;;;;;17.58;8.85;;;13.90;69.80;;;;;;4998055;28;20058;-83
2023/04/16 11:42:36;;;;;;;18.42;9.25;;;13.90;68.40;;;;;;4975988;28;20654;-82
2023/04/16 11:45:04;;;;;;;19.00;9.38;;;13.80;69.40;;;;;;4987253;28;20479;-84
2023/04/16 11:47:31;;;;;;;19.02;9.95;;;13.50;68.90;;;;;;4977399;28;20073;-84
2023/04/16 11:50:15;;;;;;;19.15;9.55;;;13.10;70.40;;;;;;4992260;28;20054;-82
2023/04/16 11:52:42;;;;;;;17.10;9.52;;;12.70;72.20;;;;;;4988612;28;20137;-76
2023/04/16 11:55:09;;;;;;;24.95;10.57;;;12.60;72.10;;;;;;4990464;28;20527;-77
2023/04/16 11:57:37;;;;;;;17.13;9.13;;;12.50;73.60;;;;;;4996113;28;20051;-78
2023/04/16 12:00:13;;;;;;;23.38;10.50;;;12.60;74.60;;;;;;4975940;28;20072;-78
2023/04/16 12:02:42;;;;;;;26.98;11.00;;;12.50;75.10;;;;;;4972831;28;20050;-79
2023/04/16 12:05:31;;;;;;;20.98;10.70;;;12.50;75.10;;;;;;4970809;28;20056;-78
2023/04/16 12:07:59;;;;;;;22.63;10.77;;;12.60;74.60;;;;;;4971788;28;20042;-78
2023/04/16 12:10:28;;;;;;;28.48;11.05;;;12.50;75.30;;;;;;4981343;28;20831;-76
2023/04/16 12:13:15;;;;;;;28.08;11.60;;;12.60;74.90;;;;;;4979539;28;20453;-78
2023/04/16 12:15:47;;;;;;;25.80;11.52;;;12.70;74.60;;;;;;4994919;28;20782;-77
2023/04/16 12:18:15;;;;;;;21.20;10.45;;;12.80;73.50;;;;;;4994603;28;20058;-77
2023/04/16 12:20:43;;;;;;;21.33;11.10;;;12.60;74.20;;;;;;4990124;28;20100;-78
2023/04/16 12:23:30;;;;;;;18.45;9.70;;;12.50;73.80;;;;;;4997082;28;20054;-75
2023/04/16 12:26:01;;;;;;;19.60;11.02;;;12.50;74.10;;;;;;4975864;28;20125;-77
2023/04/16 12:28:33;;;;;;;24.10;11.38;;;12.40;75.50;;;;;;4985289;28;20061;-79
2023/04/16 12:31:01;;;;;;;20.00;10.93;;;12.40;75.90;;;;;;5009650;28;20046;-77
2023/04/16 12:33:29;;;;;;;18.55;10.23;;;12.40;76.30;;;;;;5004781;28;20513;-76
2023/04/16 12:35:56;;;;;;;21.38;11.23;;;12.60;75.50;;;;;;5003672;28;20050;-80
2023/04/16 12:38:24;;;;;;;19.25;10.60;;;13.20;74.80;;;;;;5011239;28;20053;-80
2023/04/16 12:40:55;;;;;;;19.05;11.23;;;13.20;73.40;;;;;;4990922;28;20842;-78
2023/04/16 12:43:22;;;;;;;24.60;11.90;;;13.40;72.40;;;;;;4987956;28;20053;-78
2023/04/16 12:45:49;;;;;;;26.27;13.02;;;13.30;73.10;;;;;;4992113;28;20050;-77
2023/04/16 12:48:16;;;;;;;21.13;10.57;;;13.50;72.70;;;;;;5001461;28;20053;-79
2023/04/16 12:50:46;;;;;;;28.83;12.38;;;13.40;71.60;;;;;;4983901;28;20054;-79
2023/04/16 12:53:13;;;;;;;26.92;11.25;;;13.10;72.40;;;;;;4982784;28;20486;-77